EDT,Max TemperatureF,Mean TemperatureF,Min TemperatureF,Max Dew PointF,MeanDew PointF,Min DewpointF,Max Humidity, Mean Humidity, Min Humidity, Max Sea Level PressureIn, Mean Sea Level PressureIn, Min Sea Level PressureIn, Max VisibilityMiles, Mean VisibilityMiles, Min VisibilityMiles, Max Wind SpeedMPH, Mean Wind SpeedMPH, Max Gust SpeedMPH,PrecipitationIn, CloudCover, Events, WindDirDegrees
2012-10-1,79,73,66,74,68,64,100,90,79,29.89,29.83,29.79,10,5,0,10,7,13,0.11,7,Fog-Rain,73
2012-10-2,90,83,75,75,73,71,94,75,56,29.98,29.85,29.77,10,8,2,21,6,28,0.35,5,Rain,177
2012-10-3,85,80,75,75,73,68,94,78,61,30.19,30.07,29.99,10,8,5,10,4,14,0.02,5,Rain,213
2012-10-4,79,73,66,70,68,66,93,82,71,30.25,30.20,30.16,10,9,2,8,2,10,0.10,5,Rain,307
2012-10-5,83,74,64,66,63,57,93,68,43,30.19,30.12,30.03,10,8,1,8,3,13,0.00,0,,6
2012-10-6,86,73,59,67,60,57,97,67,37,30.03,29.98,29.88,10,4,0,13,4,17,0.00,1,Fog,224
2012-10-7,81,70,58,70,64,52,100,79,58,30.10,29.98,29.93,10,6,1,17,6,23,0.00,5,,317
2012-10-8,59,56,52,54,51,48,100,86,72,30.15,30.11,30.08,10,8,2,17,10,22,0.23,8,Rain,29
2012-10-9,61,56,51,53,50,48,96,84,72,30.15,30.11,30.09,10,7,2,12,6,15,0.00,8,,349
2012-10-10,76,61,45,55,50,43,96,71,46,30.13,30.09,30.00,10,6,0,15,4,18,0.00,1,Fog,259
2012-10-11,72,61,50,54,47,43,93,64,35,30.30,30.23,30.13,10,10,9,16,3,21,0.00,0,,33
2012-10-12,78,63,47,54,50,44,93,66,39,30.28,30.21,30.16,10,10,8,10,3,13,0.00,0,,13
2012-10-13,74,63,51,51,48,45,83,61,38,30.43,30.35,30.29,10,10,10,15,6,20,0.00,0,,68
2012-10-14,82,67,52,63,55,48,83,64,45,30.30,30.19,30.05,10,10,10,9,4,15,0.00,1,,78
2012-10-15,82,72,61,70,64,48,97,77,56,30.03,29.85,29.74,10,9,1,24,6,36,0.60,4,Rain-Thunderstorm,238
2012-10-16,73,60,47,50,45,41,93,62,31,29.98,29.91,29.86,10,10,7,15,4,22,0.00,0,,1
2012-10-17,72,60,47,54,50,46,93,69,44,30.02,29.96,29.92,10,10,6,12,2,15,0.00,0,,134
2012-10-18,81,68,54,66,59,51,93,74,54,29.91,29.85,29.78,10,10,7,13,5,25,0.01,3,Rain,154
2012-10-19,78,66,53,67,55,39,93,59,25,29.83,29.78,29.74,10,8,2,16,7,21,0.34,3,Rain,231
2012-10-20,75,61,47,50,46,43,89,60,31,29.93,29.85,29.79,10,10,10,15,5,23,0.00,0,,261
2012-10-21,72,60,47,49,44,41,83,59,35,30.15,30.08,29.96,10,10,10,16,5,20,0.00,0,,13
2012-10-22,76,60,43,53,46,40,92,64,36,30.24,30.18,30.14,10,10,9,8,1,9,0.00,0,,39
2012-10-23,79,62,45,55,49,43,93,63,32,30.22,30.16,30.12,10,10,5,7,1,13,0.00,0,,167
2012-10-24,82,67,51,62,54,48,100,70,39,30.21,30.16,30.09,10,5,0,7,1,12,0.00,1,Fog,29
2012-10-25,84,70,56,65,58,55,100,74,47,30.14,30.10,30.05,10,5,0,13,5,18,0.00,3,Fog,37
2012-10-26,74,67,59,62,59,56,97,77,57,30.05,29.97,29.84,10,10,9,18,11,23,0.00,1,,27
2012-10-27,70,68,65,63,60,54,81,71,61,29.85,29.71,29.61,10,10,10,24,16,32,0.00,6,,14
2012-10-28,75,67,58,54,50,44,72,57,41,29.62,29.59,29.55,10,10,10,22,13,30,0.00,3,,347
2012-10-29,58,54,50,43,35,31,64,52,40,29.61,29.56,29.50,10,10,10,24,14,32,T,6,Rain,306
2012-10-30,59,53,46,35,31,29,54,45,36,29.69,29.54,29.46,10,10,10,21,12,28,T,7,Rain,266
2012-10-31,65,52,38,37,33,29,66,48,30,29.80,29.73,29.69,10,10,10,18,7,24,0.00,0,,256